Time;durP1;ratioP1;P1;durP2;ratioP2;P2;SDS_P1;SDS_P2;PMS_P1;PMS_P2;Temp;Humidity;BMP_temperature;BMP_pressure;BME280_temperature;BME280_humidity;BME280_pressure;Samples;Min_cycle;Max_cycle;Signal;HPM_P1;HPM_P2
2022/11/14 00:00:54;;;;;;;38.58;22.30;;;6.30;99.90;;;;;;5069681;28;20139;-77
2022/11/14 00:03:20;;;;;;;40.80;24.17;;;6.30;99.90;;;;;;5078365;28;20087;-77
2022/11/14 00:05:46;;;;;;;40.75;22.70;;;6.40;99.90;;;;;;5074604;28;20045;-77
2022/11/14 00:08:18;;;;;;;42.22;22.65;;;6.40;99.90;;;;;;5085350;28;20043;-77
2022/11/14 00:10:48;;;;;;;43.22;23.83;;;6.40;99.90;;;;;;5072631;28;20049;-77
2022/11/14 00:13:14;;;;;;;43.42;23.73;;;6.40;99.90;;;;;;5067186;28;20044;-77
2022/11/14 00:15:40;;;;;;;48.78;24.95;;;6.40;99.90;;;;;;5078176;28;20048;-77
2022/11/14 00:18:05;;;;;;;42.28;22.40;;;6.40;99.90;;;;;;5078837;28;20047;-77
2022/11/14 00:20:31;;;;;;;40.97;22.67;;;6.40;99.90;;;;;;5066904;28;20045;-77
2022/11/14 00:22:57;;;;;;;41.45;23.42;;;6.50;99.90;;;;;;5075166;28;20135;-78
2022/11/14 00:25:22;;;;;;;40.63;23.55;;;6.40;99.90;;;;;;5069087;28;20132;-77
2022/11/14 00:27:48;;;;;;;41.40;22.70;;;6.40;99.90;;;;;;5067619;28;20514;-76
2022/11/14 00:30:14;;;;;;;42.20;24.77;;;6.50;99.90;;;;;;5078084;28;20040;-77
2022/11/14 00:32:39;;;;;;;43.88;24.92;;;6.50;99.90;;;;;;5069216;28;20043;-77
2022/11/14 00:35:07;;;;;;;39.38;24.15;;;6.50;99.90;;;;;;5068676;28;20057;-77
2022/11/14 00:37:34;;;;;;;40.20;23.83;;;6.50;99.90;;;;;;5067790;28;20044;-77
2022/11/14 00:39:59;;;;;;;39.28;23.67;;;6.50;99.90;;;;;;5087467;28;20055;-77
2022/11/14 00:42:25;;;;;;;43.17;24.98;;;6.50;99.90;;;;;;5076486;28;20052;-77
2022/11/14 00:44:50;;;;;;;41.38;23.42;;;6.50;99.90;;;;;;5079178;28;20160;-77
2022/11/14 00:47:16;;;;;;;39.45;24.65;;;6.60;99.90;;;;;;5066803;28;20602;-77
2022/11/14 00:49:41;;;;;;;40.33;22.88;;;6.50;99.90;;;;;;5082083;28;20036;-77
2022/11/14 00:52:07;;;;;;;41.78;24.80;;;6.50;99.90;;;;;;5085487;28;20055;-77
2022/11/14 00:54:33;;;;;;;42.20;24.73;;;6.50;99.90;;;;;;5073876;28;20047;-78
2022/11/14 00:56:58;;;;;;;46.58;25.75;;;6.50;99.90;;;;;;5065420;28;20060;-77
2022/11/14 00:59:24;;;;;;;45.60;24.98;;;6.50;99.90;;;;;;5085314;28;20102;-77
2022/11/14 01:01:49;;;;;;;44.25;24.73;;;6.50;99.90;;;;;;5074065;28;20083;-78
2022/11/14 01:04:18;;;;;;;44.95;25.45;;;6.50;99.90;;;;;;5066756;28;20399;-77
2022/11/14 01:06:44;;;;;;;45.65;26.17;;;6.40;99.90;;;;;;5068666;28;20060;-78
2022/11/14 01:09:09;;;;;;;40.33;23.13;;;6.50;99.90;;;;;;5069180;28;20161;-77
2022/11/14 01:11:35;;;;;;;48.85;27.27;;;6.40;99.90;;;;;;5085292;28;20087;-77
2022/11/14 01:14:08;;;;;;;49.03;26.23;;;6.40;99.90;;;;;;5071448;28;20123;-77
2022/11/14 01:16:34;;;;;;;45.58;25.65;;;6.40;99.90;;;;;;5084374;28;20036;-77
2022/11/14 01:19:01;;;;;;;49.53;26.92;;;6.40;99.90;;;;;;5066256;28;20135;-78
2022/11/14 01:21:27;;;;;;;48.63;26.65;;;6.40;99.90;;;;;;5081440;28;20443;-77
2022/11/14 01:23:52;;;;;;;47.67;26.60;;;6.30;99.90;;;;;;5066420;28;20083;-77
2022/11/14 01:26:18;;;;;;;51.20;27.40;;;6.30;99.90;;;;;;5075111;28;20075;-77
2022/11/14 01:28:43;;;;;;;47.25;26.38;;;6.40;99.90;;;;;;5075952;28;20048;-77
2022/11/14 01:31:12;;;;;;;52.40;28.52;;;6.30;99.90;;;;;;5085111;28;20056;-77
2022/11/14 01:33:38;;;;;;;45.88;26.23;;;6.30;99.90;;;;;;5085693;28;20060;-77
2022/11/14 01:36:05;;;;;;;50.90;26.67;;;6.30;99.90;;;;;;5069093;28;20521;-76
2022/11/14 01:38:30;;;;;;;46.72;26.55;;;6.30;99.90;;;;;;5050008;28;20041;-77
2022/11/14 01:40:56;;;;;;;50.03;27.73;;;6.30;99.90;;;;;;5066831;28;20056;-78
2022/11/14 01:43:28;;;;;;;49.30;28.15;;;6.30;99.90;;;;;;5081700;28;20056;-78
2022/11/14 01:45:57;;;;;;;45.35;25.83;;;6.30;99.90;;;;;;5066036;28;20036;-77
2022/11/14 01:48:46;;;;;;;48.80;25.80;;;6.20;99.90;;;;;;5067720;28;20049;-77
2022/11/14 01:51:34;;;;;;;53.25;27.55;;;6.20;99.90;;;;;;5065598;28;20045;-77
2022/11/14 01:54:20;;;;;;;52.58;28.65;;;6.20;99.90;;;;;;5075263;28;20071;-77
2022/11/14 01:56:52;;;;;;;50.58;27.70;;;6.10;99.90;;;;;;5076425;28;20120;-77
2022/11/14 01:59:22;;;;;;;54.25;29.00;;;6.20;99.90;;;;;;5078050;28;20056;-78
2022/11/14 02:01:52;;;;;;;53.72;28.48;;;6.10;99.90;;;;;;5076848;28;20559;-77
2022/11/14 02:04:31;;;;;;;55.67;29.75;;;6.10;99.90;;;;;;5066034;28;20063;-77
2022/11/14 02:07:01;;;;;;;52.70;28.35;;;6.10;99.90;;;;;;5064651;28;20127;-77
2022/11/14 02:09:38;;;;;;;54.67;30.40;;;6.00;99.90;;;;;;5065357;28;20088;-77
2022/11/14 02:12:07;;;;;;;58.70;30.23;;;6.00;99.90;;;;;;5066857;28;20044;-77
2022/11/14 02:14:36;;;;;;;53.88;30.58;;;6.00;99.90;;;;;;5066461;28;20048;-77
2022/11/14 02:17:02;;;;;;;57.92;31.30;;;6.00;99.90;;;;;;5084222;28;20047;-78
2022/11/14 02:19:42;;;;;;;61.50;31.58;;;6.00;99.90;;;;;;5086375;28;20079;-77
2022/11/14 02:22:08;;;;;;;60.60;31.95;;;6.00;99.90;;;;;;5084299;28;20485;-77
2022/11/14 02:24:33;;;;;;;56.97;30.92;;;6.00;99.90;;;;;;5085044;28;20048;-77
2022/11/14 02:26:59;;;;;;;58.40;32.17;;;6.00;99.90;;;;;;5082522;28;20043;-77
2022/11/14 02:29:25;;;;;;;59.17;30.60;;;6.00;99.90;;;;;;5089614;28;20048;-77
2022/11/14 02:31:50;;;;;;;60.00;32.25;;;6.00;99.90;;;;;;5071321;28;20054;-77
2022/11/14 02:34:18;;;;;;;60.03;31.30;;;6.00;99.90;;;;;;5071226;28;20072;-77
2022/11/14 02:36:44;;;;;;;61.05;32.00;;;6.00;99.90;;;;;;5086580;28;20048;-77
2022/11/14 02:39:10;;;;;;;59.25;32.47;;;6.00;99.90;;;;;;5084674;28;20114;-77
2022/11/14 02:41:35;;;;;;;63.42;32.72;;;6.00;99.90;;;;;;5078816;28;20047;-77
2022/11/14 02:44:01;;;;;;;57.88;31.80;;;6.00;99.90;;;;;;5079864;28;20040;-77
2022/11/14 02:46:26;;;;;;;59.63;32.65;;;6.00;99.90;;;;;;5083198;28;20097;-77
2022/11/14 02:48:52;;;;;;;59.25;32.90;;;6.00;99.90;;;;;;5088440;28;20405;-78
2022/11/14 02:51:18;;;;;;;62.65;33.55;;;6.00;99.90;;;;;;5087385;28;20466;-77
2022/11/14 02:53:43;;;;;;;62.35;32.95;;;6.10;99.90;;;;;;5068416;28;20060;-77
2022/11/14 02:56:09;;;;;;;63.25;33.55;;;6.10;99.90;;;;;;5075215;28;20048;-77
2022/11/14 02:58:34;;;;;;;64.38;33.75;;;6.10;99.90;;;;;;5069086;28;20044;-78
2022/11/14 03:01:00;;;;;;;66.43;34.58;;;6.10;99.90;;;;;;5069198;28;20468;-77
2022/11/14 03:03:25;;;;;;;64.40;33.63;;;6.10;99.90;;;;;;5077553;28;20079;-77
2022/11/14 03:05:52;;;;;;;63.42;32.35;;;6.10;99.90;;;;;;5081207;28;20040;-77
2022/11/14 03:08:18;;;;;;;60.90;34.10;;;6.10;99.90;;;;;;5070963;28;20052;-77
2022/11/14 03:10:44;;;;;;;63.90;34.30;;;6.20;99.90;;;;;;5078529;28;20040;-77
2022/11/14 03:13:10;;;;;;;62.40;33.38;;;6.10;99.90;;;;;;5075316;28;20044;-77
2022/11/14 03:15:36;;;;;;;62.47;32.13;;;6.10;99.90;;;;;;5075160;28;20484;-77
2022/11/14 03:18:02;;;;;;;61.63;33.03;;;6.10;99.90;;;;;;5072162;28;20033;-77
2022/11/14 03:20:28;;;;;;;59.55;32.28;;;6.10;99.90;;;;;;5068699;28;20064;-77
2022/11/14 03:22:53;;;;;;;61.03;32.15;;;6.10;99.90;;;;;;5088622;28;20056;-77
2022/11/14 03:25:19;;;;;;;62.83;32.35;;;6.10;99.90;;;;;;5080518;28;20641;-77
2022/11/14 03:27:44;;;;;;;55.33;31.27;;;6.10;99.90;;;;;;5082928;28;20032;-77
2022/11/14 03:30:10;;;;;;;65.03;33.65;;;6.10;99.90;;;;;;5070840;28;20149;-77
2022/11/14 03:32:36;;;;;;;62.83;32.45;;;6.00;99.90;;;;;;5074770;28;20519;-77
2022/11/14 03:35:02;;;;;;;61.85;33.85;;;6.00;99.90;;;;;;5083920;28;20051;-77
2022/11/14 03:37:27;;;;;;;63.08;33.28;;;6.00;99.90;;;;;;5071508;28;20083;-77
2022/11/14 03:39:53;;;;;;;58.00;31.95;;;6.00;99.90;;;;;;5068468;28;20552;-77
2022/11/14 03:42:18;;;;;;;61.83;33.63;;;6.00;99.90;;;;;;5066689;28;20047;-77
2022/11/14 03:44:44;;;;;;;63.53;33.65;;;6.00;99.90;;;;;;5068057;28;20060;-77
2022/11/14 03:47:10;;;;;;;63.10;32.53;;;6.00;99.90;;;;;;5082472;28;20056;-77
2022/11/14 03:49:35;;;;;;;58.17;32.22;;;6.00;99.90;;;;;;5087280;28;20044;-77
2022/11/14 03:52:01;;;;;;;61.67;32.30;;;6.00;99.90;;;;;;5072451;28;20041;-77
2022/11/14 03:54:26;;;;;;;58.65;31.90;;;6.00;99.90;;;;;;5066980;28;20140;-77
2022/11/14 03:56:52;;;;;;;58.25;32.28;;;6.00;99.90;;;;;;5072914;28;20200;-78
2022/11/14 03:59:17;;;;;;;62.70;33.78;;;6.00;99.90;;;;;;5068241;28;20052;-77
2022/11/14 04:01:43;;;;;;;61.47;33.53;;;6.00;99.90;;;;;;5079182;28;20051;-77
2022/11/14 04:04:11;;;;;;;56.53;32.17;;;6.00;99.90;;;;;;5087640;28;20086;-77
2022/11/14 04:06:37;;;;;;;59.17;32.33;;;6.00;99.90;;;;;;5081023;28;20051;-77
2022/11/14 04:09:03;;;;;;;59.20;30.90;;;6.00;99.90;;;;;;5087798;28;20522;-77
2022/11/14 04:11:28;;;;;;;57.15;32.40;;;6.00;99.90;;;;;;5069353;28;20041;-77
2022/11/14 04:13:54;;;;;;;57.10;32.03;;;5.90;99.90;;;;;;5064120;28;20075;-77
2022/11/14 04:16:19;;;;;;;58.17;32.15;;;5.90;99.90;;;;;;5068899;28;20036;-77
2022/11/14 04:18:45;;;;;;;56.90;31.90;;;5.90;99.90;;;;;;5067222;28;20046;-77
2022/11/14 04:21:10;;;;;;;62.90;33.88;;;5.90;99.90;;;;;;5076034;28;20051;-77
2022/11/14 04:23:36;;;;;;;60.47;31.63;;;5.90;99.90;;;;;;5070776;28;20083;-77
2022/11/14 04:26:01;;;;;;;60.30;32.10;;;6.00;99.90;;;;;;5068426;28;20115;-77
2022/11/14 04:28:27;;;;;;;57.78;30.70;;;6.00;99.90;;;;;;5084796;28;20068;-77
2022/11/14 04:30:52;;;;;;;59.63;32.22;;;5.90;99.90;;;;;;5079584;28;20441;-77
2022/11/14 04:33:18;;;;;;;54.10;29.88;;;5.90;99.90;;;;;;5068660;28;20131;-76
2022/11/14 04:35:44;;;;;;;58.65;30.75;;;6.00;99.90;;;;;;5071818;28;20052;-78
2022/11/14 04:38:10;;;;;;;53.95;31.33;;;6.00;99.90;;;;;;5068945;28;20052;-77
2022/11/14 04:40:35;;;;;;;60.70;33.33;;;6.00;99.90;;;;;;5067631;28;20088;-77
2022/11/14 04:43:03;;;;;;;52.50;30.05;;;6.00;99.90;;;;;;5075819;28;20051;-77
2022/11/14 04:45:29;;;;;;;58.53;31.00;;;6.00;99.90;;;;;;5068368;28;20550;-77
2022/11/14 04:47:54;;;;;;;54.10;31.33;;;6.00;99.90;;;;;;5086612;28;20119;-77
2022/11/14 04:50:23;;;;;;;57.75;30.83;;;6.00;99.90;;;;;;5072281;28;20199;-77
2022/11/14 04:52:52;;;;;;;53.78;30.45;;;6.00;99.90;;;;;;5078469;28;20048;-77
2022/11/14 04:55:25;;;;;;;55.00;30.33;;;6.00;99.90;;;;;;5066075;28;20106;-77
2022/11/14 04:57:55;;;;;;;60.05;30.40;;;6.00;99.90;;;;;;5087698;28;20050;-77
2022/11/14 05:00:21;;;;;;;58.58;31.48;;;6.00;99.90;;;;;;5085244;28;20056;-77
2022/11/14 05:02:47;;;;;;;58.78;30.13;;;6.00;99.90;;;;;;5079815;28;20127;-77
2022/11/14 05:05:15;;;;;;;57.00;31.40;;;6.00;99.90;;;;;;5086616;28;20175;-77
2022/11/14 05:07:41;;;;;;;55.90;31.83;;;6.10;99.90;;;;;;5077127;28;20048;-78
2022/11/14 05:10:08;;;;;;;54.88;32.15;;;6.10;99.90;;;;;;5085294;28;20052;-77
2022/11/14 05:12:33;;;;;;;58.17;32.22;;;6.10;99.90;;;;;;5082177;28;20055;-77
2022/11/14 05:14:59;;;;;;;53.67;30.75;;;6.10;99.90;;;;;;5066661;28;20048;-78
2022/11/14 05:17:26;;;;;;;57.80;31.75;;;6.10;99.90;;;;;;5073711;28;20097;-77
2022/11/14 05:19:51;;;;;;;59.28;30.38;;;6.10;99.90;;;;;;5087909;28;20128;-77
2022/11/14 05:22:17;;;;;;;54.90;31.00;;;6.10;99.90;;;;;;5071332;28;20119;-77
2022/11/14 05:24:43;;;;;;;54.70;30.55;;;6.10;99.90;;;;;;5075016;28;20097;-77
2022/11/14 05:27:08;;;;;;;53.80;29.92;;;6.00;99.90;;;;;;5085737;28;20101;-77
2022/11/14 05:29:34;;;;;;;59.28;31.00;;;6.00;99.90;;;;;;5085124;28;20036;-77
2022/11/14 05:31:59;;;;;;;55.60;29.35;;;6.10;99.90;;;;;;5073916;28;20114;-78
2022/11/14 05:34:25;;;;;;;56.10;32.55;;;6.10;99.90;;;;;;5049805;28;20037;-77
2022/11/14 05:36:51;;;;;;;53.85;30.10;;;6.10;99.90;;;;;;5076761;28;20135;-77
2022/11/14 05:39:20;;;;;;;57.53;31.70;;;6.10;99.90;;;;;;5070060;28;20079;-77
2022/11/14 05:41:45;;;;;;;56.08;31.88;;;6.00;99.90;;;;;;5086770;28;20080;-77
2022/11/14 05:44:11;;;;;;;55.60;30.48;;;6.10;99.90;;;;;;5068661;28;20048;-77
2022/11/14 05:46:36;;;;;;;57.15;31.20;;;6.00;99.90;;;;;;5078292;28;20040;-77
2022/11/14 05:49:02;;;;;;;54.88;31.38;;;6.00;99.90;;;;;;5072782;28;20173;-77
2022/11/14 05:51:27;;;;;;;54.60;31.42;;;6.00;99.90;;;;;;5076406;28;20132;-77
2022/11/14 05:53:54;;;;;;;57.78;31.60;;;6.00;99.90;;;;;;5067687;28;20041;-77
2022/11/14 05:56:20;;;;;;;58.75;31.88;;;6.00;99.90;;;;;;5065244;28;20055;-77
2022/11/14 05:58:45;;;;;;;56.50;31.58;;;6.00;99.90;;;;;;5077619;28;20074;-77
2022/11/14 06:01:14;;;;;;;64.68;33.35;;;6.00;99.90;;;;;;5077751;28;20048;-77
2022/11/14 06:03:42;;;;;;;60.72;32.25;;;6.00;99.90;;;;;;5083540;28;20048;-77
2022/11/14 06:06:10;;;;;;;65.97;33.78;;;6.00;99.90;;;;;;5093643;28;20084;-77
2022/11/14 06:08:36;;;;;;;58.15;32.10;;;6.00;99.90;;;;;;5071153;28;20044;-77
2022/11/14 06:11:10;;;;;;;60.55;31.92;;;5.90;99.90;;;;;;5085683;28;20039;-77
2022/11/14 06:13:36;;;;;;;59.42;31.73;;;5.90;99.90;;;;;;5068663;28;20045;-78
2022/11/14 06:16:06;;;;;;;58.70;32.25;;;5.80;99.90;;;;;;5076532;28;20101;-77
2022/11/14 06:18:34;;;;;;;65.03;33.03;;;5.80;99.90;;;;;;5073180;28;20513;-77
2022/11/14 06:21:00;;;;;;;56.67;32.08;;;5.80;99.90;;;;;;5089116;28;20044;-77
2022/11/14 06:23:26;;;;;;;65.25;33.50;;;5.80;99.90;;;;;;5087827;28;20044;-77
2022/11/14 06:25:58;;;;;;;62.95;32.55;;;5.70;99.90;;;;;;5087945;28;20044;-77
2022/11/14 06:28:23;;;;;;;62.47;33.40;;;5.70;99.90;;;;;;5071666;28;20127;-77
2022/11/14 06:30:49;;;;;;;63.78;33.72;;;5.70;99.90;;;;;;5071393;28;20040;-77
2022/11/14 06:33:14;;;;;;;66.40;33.53;;;5.70;99.90;;;;;;5077363;28;20072;-77
2022/11/14 06:35:40;;;;;;;60.72;32.35;;;5.70;99.90;;;;;;5090127;28;20040;-78
2022/11/14 06:38:05;;;;;;;64.88;33.22;;;5.70;99.90;;;;;;5089828;28;20101;-78
2022/11/14 06:40:31;;;;;;;62.42;32.97;;;5.70;99.90;;;;;;5087705;28;20040;-78
2022/11/14 06:42:57;;;;;;;66.32;31.45;;;5.70;99.90;;;;;;5071740;28;20048;-78
2022/11/14 06:45:22;;;;;;;58.70;31.15;;;5.70;99.90;;;;;;5071033;28;20083;-78
2022/11/14 06:47:48;;;;;;;64.78;33.28;;;5.70;99.90;;;;;;5089562;28;20040;-78
2022/11/14 06:50:13;;;;;;;68.28;33.60;;;5.70;99.90;;;;;;5075704;28;20044;-77
2022/11/14 06:52:39;;;;;;;63.45;33.53;;;5.70;99.90;;;;;;5084531;28;20083;-77
2022/11/14 06:55:05;;;;;;;61.67;33.20;;;5.70;99.90;;;;;;5069931;28;20409;-78
2022/11/14 06:57:30;;;;;;;63.90;32.83;;;5.70;99.90;;;;;;5070937;28;20059;-78
2022/11/14 06:59:56;;;;;;;62.42;33.97;;;5.60;99.90;;;;;;5069211;28;20049;-78
2022/11/14 07:02:22;;;;;;;63.53;32.90;;;5.60;99.90;;;;;;5068704;28;20132;-77
2022/11/14 07:04:47;;;;;;;63.58;32.25;;;5.60;99.90;;;;;;5069467;28;20110;-78
2022/11/14 07:07:13;;;;;;;62.03;32.60;;;5.70;99.90;;;;;;5085897;28;20090;-78
2022/11/14 07:09:38;;;;;;;66.20;32.38;;;5.60;99.90;;;;;;5088441;28;20048;-78
2022/11/14 07:12:04;;;;;;;66.53;33.42;;;5.60;99.90;;;;;;5083518;28;20076;-78
2022/11/14 07:14:30;;;;;;;67.07;34.35;;;5.60;99.90;;;;;;5069131;28;20044;-78
2022/11/14 07:16:57;;;;;;;67.65;32.78;;;5.50;99.90;;;;;;5068577;28;20036;-78
2022/11/14 07:19:22;;;;;;;62.78;33.30;;;5.50;99.90;;;;;;5069661;28;20065;-78
2022/11/14 07:21:48;;;;;;;62.05;33.83;;;5.40;99.90;;;;;;5064304;28;20040;-77
2022/11/14 07:24:13;;;;;;;65.75;32.60;;;5.40;99.90;;;;;;5071152;28;20047;-78
2022/11/14 07:26:39;;;;;;;64.90;32.85;;;5.30;99.90;;;;;;5070988;28;20051;-78
2022/11/14 07:29:04;;;;;;;68.25;34.20;;;5.30;99.90;;;;;;5068420;28;20048;-78
2022/11/14 07:31:30;;;;;;;74.20;34.65;;;5.30;99.90;;;;;;5068836;28;20045;-79
2022/11/14 07:33:56;;;;;;;65.25;32.80;;;5.30;99.90;;;;;;5068776;28;20060;-78
2022/11/14 07:36:22;;;;;;;73.55;35.45;;;5.30;99.90;;;;;;5069227;28;20051;-77
2022/11/14 07:38:47;;;;;;;71.68;33.25;;;5.30;99.90;;;;;;5076927;28;20048;-78
2022/11/14 07:41:15;;;;;;;71.03;35.35;;;5.30;99.90;;;;;;5069567;28;20040;-78
2022/11/14 07:43:41;;;;;;;72.18;33.85;;;5.40;99.90;;;;;;5068131;28;20418;-77
2022/11/14 07:46:09;;;;;;;70.88;34.70;;;5.40;99.90;;;;;;5069694;28;20048;-77
2022/11/14 07:48:35;;;;;;;67.43;34.33;;;5.40;99.90;;;;;;5085816;28;20048;-77
2022/11/14 07:51:03;;;;;;;70.72;34.88;;;5.40;99.90;;;;;;5086292;28;20811;-76
2022/11/14 07:53:28;;;;;;;69.10;34.05;;;5.40;99.90;;;;;;5086436;28;20414;-76
2022/11/14 07:55:56;;;;;;;66.85;34.35;;;5.40;99.90;;;;;;5071349;28;20052;-77
2022/11/14 07:58:21;;;;;;;67.40;34.05;;;5.50;99.90;;;;;;5067700;28;20053;-77
2022/11/14 08:00:47;;;;;;;66.50;32.22;;;5.50;99.90;;;;;;5067965;28;20070;-79
2022/11/14 08:03:13;;;;;;;66.63;34.72;;;5.50;99.90;;;;;;5066785;28;20494;-80
2022/11/14 08:05:38;;;;;;;66.88;32.33;;;5.50;99.90;;;;;;5082924;28;20403;-79
2022/11/14 08:08:04;;;;;;;65.60;32.90;;;5.50;99.90;;;;;;5087866;28;20085;-80
2022/11/14 08:10:30;;;;;;;62.80;32.58;;;5.50;99.90;;;;;;5070646;28;20495;-79
2022/11/14 08:13:04;;;;;;;61.25;32.17;;;5.60;99.90;;;;;;5070563;28;20048;-80
2022/11/14 08:15:30;;;;;;;70.45;33.33;;;5.60;99.90;;;;;;5087987;28;20048;-80
2022/11/14 08:17:57;;;;;;;63.97;32.85;;;5.60;99.90;;;;;;5086176;28;20490;-80
2022/11/14 08:20:23;;;;;;;56.75;30.40;;;6.20;99.90;;;;;;5074781;28;20489;-79
2022/11/14 08:22:49;;;;;;;60.60;30.75;;;5.60;99.90;;;;;;5068887;28;20472;-79
2022/11/14 08:25:14;;;;;;;57.25;31.30;;;5.60;99.90;;;;;;5067018;28;20163;-79
2022/11/14 08:27:40;;;;;;;63.97;32.50;;;5.70;99.90;;;;;;5067243;28;20093;-79
2022/11/14 08:30:06;;;;;;;61.80;31.52;;;5.70;99.90;;;;;;5068412;28;20052;-80
2022/11/14 08:32:32;;;;;;;63.55;32.58;;;5.70;99.90;;;;;;5053145;28;20052;-80
2022/11/14 08:34:57;;;;;;;64.20;32.42;;;5.70;99.90;;;;;;5067125;28;20041;-78
2022/11/14 08:37:23;;;;;;;63.17;32.92;;;5.70;99.90;;;;;;5068444;28;20059;-78
2022/11/14 08:39:48;;;;;;;62.33;32.72;;;5.80;99.90;;;;;;5067086;28;20067;-79
2022/11/14 08:42:14;;;;;;;63.42;32.30;;;5.80;99.90;;;;;;5067036;28;20048;-79
2022/11/14 08:44:39;;;;;;;63.50;32.75;;;5.80;99.90;;;;;;5068477;28;20052;-79
2022/11/14 08:47:05;;;;;;;65.95;33.15;;;5.90;99.90;;;;;;5067315;28;20082;-78
2022/11/14 08:49:33;;;;;;;56.08;30.60;;;5.90;99.90;;;;;;5066985;28;20051;-79
2022/11/14 08:51:59;;;;;;;58.38;30.73;;;5.90;99.90;;;;;;5068865;28;20558;-77
2022/11/14 08:54:24;;;;;;;57.92;30.58;;;5.90;99.90;;;;;;5084131;28;20040;-78
2022/11/14 08:56:50;;;;;;;58.33;30.80;;;6.00;99.90;;;;;;5075630;28;20106;-79
2022/11/14 08:59:15;;;;;;;61.40;31.98;;;6.00;99.90;;;;;;5069410;28;20053;-78
2022/11/14 09:01:41;;;;;;;60.22;31.85;;;6.00;99.90;;;;;;5068323;28;20052;-78
2022/11/14 09:04:07;;;;;;;52.78;29.45;;;6.10;99.90;;;;;;5076697;28;20918;-78
2022/11/14 09:06:34;;;;;;;55.13;30.30;;;6.10;99.90;;;;;;5076387;28;20052;-79
2022/11/14 09:09:00;;;;;;;54.42;30.08;;;6.10;99.90;;;;;;5085129;28;20123;-78
2022/11/14 09:11:25;;;;;;;60.15;32.08;;;6.10;99.90;;;;;;5080678;28;20105;-78
2022/11/14 09:13:51;;;;;;;51.38;29.70;;;6.20;99.90;;;;;;5071939;28;20040;-78
2022/11/14 09:16:16;;;;;;;53.70;30.27;;;6.20;99.90;;;;;;5085561;28;20458;-78
2022/11/14 09:18:42;;;;;;;53.13;28.40;;;6.20;99.90;;;;;;5069834;28;20109;-78
2022/11/14 09:21:09;;;;;;;57.10;29.58;;;6.30;99.90;;;;;;5084806;28;20052;-78
2022/11/14 09:23:35;;;;;;;55.08;28.50;;;6.40;99.90;;;;;;5070538;28;20044;-78
2022/11/14 09:26:05;;;;;;;54.88;29.42;;;6.40;99.90;;;;;;5068640;28;20754;-78
2022/11/14 09:28:31;;;;;;;54.47;29.30;;;6.50;99.90;;;;;;5079699;28;20047;-78
2022/11/14 09:31:08;;;;;;;54.70;29.77;;;6.50;99.90;;;;;;5074255;28;20047;-78
2022/11/14 09:33:35;;;;;;;49.55;28.48;;;6.60;99.90;;;;;;5083055;28;20490;-78
2022/11/14 09:36:03;;;;;;;53.58;28.23;;;6.60;99.90;;;;;;5071074;28;20072;-78
2022/11/14 09:38:29;;;;;;;52.30;27.52;;;6.70;99.90;;;;;;5079793;28;20055;-79
2022/11/14 09:41:22;;;;;;;49.65;27.58;;;6.70;99.90;;;;;;5065789;28;20059;-79
2022/11/14 09:44:09;;;;;;;52.15;29.00;;;6.90;99.90;;;;;;5067705;28;20125;-78
2022/11/14 09:46:52;;;;;;;51.70;27.33;;;6.90;99.90;;;;;;5049168;28;20044;-79
2022/11/14 09:49:39;;;;;;;46.70;26.83;;;7.00;99.90;;;;;;5066135;28;20045;-77
2022/11/14 09:52:26;;;;;;;51.53;27.83;;;7.00;99.90;;;;;;5057648;28;20046;-78
2022/11/14 09:54:56;;;;;;;46.97;27.80;;;7.10;99.90;;;;;;5070598;28;20530;-79
2022/11/14 09:57:24;;;;;;;44.78;26.25;;;7.20;99.90;;;;;;5065694;28;20044;-78
2022/11/14 09:59:50;;;;;;;46.30;26.95;;;7.20;99.90;;;;;;5052335;28;20424;-79
2022/11/14 10:02:33;;;;;;;45.67;27.55;;;7.30;99.90;;;;;;5065911;28;20045;-79
2022/11/14 10:05:22;;;;;;;50.97;28.42;;;7.20;99.90;;;;;;5066258;28;20063;-79
2022/11/14 10:08:24;;;;;;;46.60;27.60;;;7.20;99.90;;;;;;5049583;28;20048;-79
2022/11/14 10:10:55;;;;;;;45.70;26.73;;;7.30;99.90;;;;;;5084587;28;20567;-79
2022/11/14 10:13:44;;;;;;;49.20;27.75;;;7.30;99.90;;;;;;5079511;28;20160;-79
2022/11/14 10:16:28;;;;;;;46.17;27.00;;;7.40;99.90;;;;;;5079278;28;20052;-79
2022/11/14 10:19:15;;;;;;;46.47;26.65;;;7.40;99.90;;;;;;5065319;28;20159;-78
2022/11/14 10:22:25;;;;;;;46.70;27.75;;;7.50;99.90;;;;;;5065934;28;20055;-78
2022/11/14 10:25:16;;;;;;;47.00;26.92;;;7.60;99.90;;;;;;5068409;28;20118;-78
2022/11/14 10:28:17;;;;;;;41.30;25.13;;;7.70;99.90;;;;;;5058025;28;20044;-78
2022/11/14 10:31:05;;;;;;;42.05;26.45;;;7.80;99.90;;;;;;5066352;28;20059;-78
2022/11/14 10:33:43;;;;;;;40.13;24.95;;;7.80;99.90;;;;;;5063005;28;20051;-78
2022/11/14 10:36:39;;;;;;;39.58;24.95;;;7.90;99.90;;;;;;5061644;28;20087;-79
2022/11/14 10:39:31;;;;;;;41.30;26.15;;;7.90;99.90;;;;;;5066697;28;20049;-78
2022/11/14 10:42:02;;;;;;;42.45;26.00;;;8.00;99.90;;;;;;5048428;28;20471;-79
2022/11/14 10:44:33;;;;;;;40.03;25.45;;;8.00;99.90;;;;;;5064826;28;20033;-78
2022/11/14 10:47:09;;;;;;;39.30;25.50;;;8.10;99.90;;;;;;5049263;28;20709;-78
2022/11/14 10:49:36;;;;;;;41.00;26.42;;;9.50;99.90;;;;;;5067590;28;20051;-79
2022/11/14 10:52:06;;;;;;;38.60;25.08;;;8.10;99.90;;;;;;5068827;28;20045;-78
2022/11/14 10:54:55;;;;;;;41.88;26.02;;;8.20;99.90;;;;;;5084395;28;20035;-79
2022/11/14 10:57:21;;;;;;;39.97;25.35;;;;;;;;;;5071610;28;20055;-79
2022/11/14 10:59:47;;;;;;;40.35;25.98;;;8.10;99.90;;;;;;5050648;28;20078;-79
2022/11/14 11:02:13;;;;;;;40.95;25.48;;;8.20;99.90;;;;;;5070616;28;20127;-79
2022/11/14 11:04:40;;;;;;;37.88;24.85;;;8.20;99.90;;;;;;5061625;28;20067;-79
2022/11/14 11:07:06;;;;;;;38.20;25.50;;;8.20;99.90;;;;;;5079858;28;20045;-80
2022/11/14 11:12:44;;;;;;;38.55;24.73;;;8.30;99.90;;;;;;5069178;28;20119;-78
2022/11/14 11:15:26;;;;;;;37.35;24.38;;;8.30;99.90;;;;;;5063077;28;20127;-78
2022/11/14 11:18:23;;;;;;;36.38;23.98;;;8.40;99.90;;;;;;5082377;28;20050;-78
2022/11/14 11:21:09;;;;;;;37.95;24.25;;;8.40;99.90;;;;;;5086909;28;20051;-77
2022/11/14 11:23:42;;;;;;;34.10;22.65;;;8.40;99.90;;;;;;5076552;28;20051;-78
2022/11/14 11:26:38;;;;;;;36.55;23.92;;;8.40;99.90;;;;;;5076445;28;20375;-78
2022/11/14 11:29:08;;;;;;;38.38;23.02;;;8.40;99.90;;;;;;5073889;28;20113;-78
2022/11/14 11:31:54;;;;;;;37.13;23.50;;;8.40;99.90;;;;;;5082245;28;20048;-78
2022/11/14 11:34:29;;;;;;;33.47;22.48;;;8.40;99.90;;;;;;5071219;28;20709;-79
2022/11/14 11:37:20;;;;;;;34.83;22.67;;;8.40;99.90;;;;;;5077100;28;20051;-79
2022/11/14 11:39:56;;;;;;;36.47;23.02;;;8.50;99.90;;;;;;5068439;28;20047;-79
2022/11/14 11:42:35;;;;;;;32.40;21.27;;;8.50;99.90;;;;;;5067385;28;20115;-78
2022/11/14 11:45:04;;;;;;;33.45;23.33;;;8.60;99.90;;;;;;5079909;28;20406;-78
2022/11/14 11:47:33;;;;;;;37.58;23.10;;;8.70;99.90;;;;;;5079495;28;20048;-78
2022/11/14 11:50:01;;;;;;;36.05;22.98;;;8.70;99.90;;;;;;5079845;28;20130;-77
2022/11/14 11:52:32;;;;;;;34.08;22.55;;;9.20;99.90;;;;;;5088005;28;20066;-77
2022/11/14 11:55:31;;;;;;;34.27;23.00;;;8.80;99.90;;;;;;5088488;28;20760;-77
2022/11/14 11:58:11;;;;;;;33.67;23.00;;;8.80;99.90;;;;;;5077818;28;20477;-77
2022/11/14 12:00:37;;;;;;;33.85;20.95;;;8.90;99.90;;;;;;5070302;28;20417;-77
2022/11/14 12:03:08;;;;;;;31.55;22.05;;;8.90;99.90;;;;;;5073592;28;20044;-77
2022/11/14 12:06:15;;;;;;;34.17;21.77;;;9.00;99.90;;;;;;5064004;28;20041;-77
2022/11/14 12:09:04;;;;;;;35.88;22.55;;;9.10;99.90;;;;;;5087922;28;20094;-77
2022/11/14 12:11:33;;;;;;;33.88;21.92;;;9.10;99.90;;;;;;5082276;28;20476;-78
2022/11/14 12:14:26;;;;;;;34.15;21.75;;;9.10;99.90;;;;;;5067721;28;20053;-78
2022/11/14 12:16:55;;;;;;;33.17;21.13;;;9.10;99.90;;;;;;5066816;28;20091;-78
2022/11/14 12:19:29;;;;;;;30.48;20.05;;;9.10;99.90;;;;;;5067520;28;20514;-78
2022/11/14 12:22:11;;;;;;;30.02;20.55;;;9.20;99.90;;;;;;5067048;28;20044;-78
2022/11/14 12:25:02;;;;;;;28.98;19.80;;;9.20;99.90;;;;;;5066905;28;20044;-79
2022/11/14 12:27:50;;;;;;;31.85;20.63;;;9.20;99.90;;;;;;5051701;28;20043;-79
2022/11/14 12:30:22;;;;;;;30.23;19.77;;;9.20;99.90;;;;;;5080500;28;20143;-78
2022/11/14 12:33:00;;;;;;;29.35;19.52;;;9.30;99.90;;;;;;5087841;28;20401;-78
2022/11/14 12:35:36;;;;;;;29.42;19.15;;;9.30;99.90;;;;;;5069914;28;20044;-78
2022/11/14 12:38:04;;;;;;;29.33;19.77;;;9.40;99.90;;;;;;5070692;28;20040;-78
2022/11/14 12:40:47;;;;;;;28.17;19.52;;;9.40;99.90;;;;;;5070102;28;20059;-78
2022/11/14 12:43:38;;;;;;;28.73;18.88;;;9.40;99.90;;;;;;5066851;28;20472;-78
2022/11/14 12:46:08;;;;;;;29.38;18.95;;;9.40;99.90;;;;;;5066398;28;20056;-78
2022/11/14 12:48:44;;;;;;;28.42;18.95;;;9.40;99.90;;;;;;5050211;28;20051;-79
2022/11/14 12:51:26;;;;;;;26.23;18.42;;;9.40;99.90;;;;;;5068281;28;20048;-78
2022/11/14 12:53:53;;;;;;;25.33;18.88;;;9.40;99.90;;;;;;5050181;28;20191;-78